createdAt,value
2023-03-29T00:03:07.884Z,99545.41
2023-03-29T00:08:14.692Z,99551.78
2023-03-29T00:13:18.081Z,99540.19
2023-03-29T00:18:21.217Z,99525.38
2023-03-29T00:23:25.831Z,99521.00
2023-03-29T00:28:28.851Z,99515.13
2023-03-29T00:33:32.012Z,99524.25
2023-03-29T00:38:37.106Z,99514.03
2023-03-29T00:43:53.846Z,99500.28
2023-03-29T00:49:03.827Z,99489.94
2023-03-29T00:54:14.862Z,99496.22
2023-03-29T00:59:21.639Z,99492.50
2023-03-29T01:04:31.081Z,99485.28
2023-03-29T01:09:38.542Z,99489.59
2023-03-29T01:14:47.102Z,99475.00
2023-03-29T01:19:58.133Z,99459.50
2023-03-29T01:25:12.639Z,99458.38
2023-03-29T01:30:22.453Z,99444.81
2023-03-29T01:35:34.184Z,99448.69
2023-03-29T01:40:37.474Z,99429.31
2023-03-29T01:45:47.182Z,99421.94
2023-03-29T01:50:54.237Z,99431.03
2023-03-29T01:56:01.473Z,99417.25
2023-03-29T02:01:10.436Z,99413.84
2023-03-29T02:06:16.380Z,99405.34
2023-03-29T02:11:19.874Z,99397.25
2023-03-29T02:16:24.393Z,99396.06
2023-03-29T02:21:31.534Z,99384.56
2023-03-29T02:26:34.618Z,99383.00
2023-03-29T02:31:42.779Z,99376.94
2023-03-29T02:36:50.844Z,99366.88
2023-03-29T02:41:54.878Z,99362.66
2023-03-29T02:47:04.252Z,99355.56
2023-03-29T02:52:11.704Z,99349.13
2023-03-29T02:57:14.809Z,99344.03
2023-03-29T03:02:20.097Z,99334.66
2023-03-29T03:07:23.039Z,99325.38
2023-03-29T03:12:26.281Z,99322.56
2023-03-29T03:17:33.171Z,99319.41
2023-03-29T03:22:36.143Z,99311.50
2023-03-29T03:27:39.790Z,99308.81
2023-03-29T03:32:44.784Z,99306.34
2023-03-29T03:38:07.306Z,99308.63
2023-03-29T03:43:10.803Z,99307.75
2023-03-29T03:48:15.655Z,99303.75
2023-03-29T03:53:26.385Z,99300.13
2023-03-29T03:58:48.332Z,99310.38
2023-03-29T04:03:55.223Z,99296.09
2023-03-29T04:08:59.802Z,99302.25
2023-03-29T04:14:13.423Z,99297.81
2023-03-29T04:19:40.063Z,99286.84
2023-03-29T04:24:43.428Z,99287.38
2023-03-29T04:30:05.740Z,99288.69
2023-03-29T04:35:40.689Z,99279.09
2023-03-29T04:40:48.810Z,99277.31
2023-03-29T04:46:09.957Z,99275.41
2023-03-29T04:51:49.823Z,99266.97
2023-03-29T04:56:56.769Z,99262.50
2023-03-29T05:02:20.552Z,99258.78
2023-03-29T05:07:27.144Z,99249.41
2023-03-29T05:12:30.309Z,99246.69
2023-03-29T05:17:33.323Z,99239.75
2023-03-29T05:22:43.595Z,99241.53
2023-03-29T05:27:51.333Z,99233.63
2023-03-29T05:32:54.686Z,99233.38
2023-03-29T05:38:04.268Z,99236.59
2023-03-29T05:43:07.473Z,99227.81
2023-03-29T05:48:10.623Z,99235.94
2023-03-29T05:53:18.944Z,99242.03
2023-03-29T05:58:22.100Z,99235.31
2023-03-29T06:03:27.476Z,99240.75
2023-03-29T06:08:35.425Z,99239.44
2023-03-29T06:14:04.778Z,99246.56
2023-03-29T06:19:08.795Z,99250.97
2023-03-29T06:24:15.665Z,99248.78
2023-03-29T06:29:24.386Z,99241.53
2023-03-29T06:34:27.938Z,99243.00
2023-03-29T06:39:55.666Z,99236.94
2023-03-29T06:45:04.357Z,99240.72
2023-03-29T06:50:08.485Z,99235.91
2023-03-29T06:55:21.663Z,99235.44
2023-03-29T07:00:28.886Z,99240.44
2023-03-29T07:05:52.003Z,99239.19
2023-03-29T07:10:59.553Z,99227.81
2023-03-29T07:16:21.122Z,99222.28
2023-03-29T07:21:24.182Z,99230.75
2023-03-29T07:26:29.994Z,99231.00
2023-03-29T07:31:35.865Z,99225.66
2023-03-29T07:37:14.108Z,99244.44
2023-03-29T07:42:20.424Z,99240.69
2023-03-29T07:47:24.631Z,99232.28
2023-03-29T07:52:29.982Z,99231.66
2023-03-29T07:57:35.183Z,99231.22
2023-03-29T08:02:38.669Z,99240.00
2023-03-29T08:07:45.580Z,99247.75
2023-03-29T08:12:53.413Z,99244.09
2023-03-29T08:18:03.060Z,99241.03
2023-03-29T08:23:06.418Z,99230.25
2023-03-29T08:28:33.756Z,99234.03
2023-03-29T08:33:37.064Z,99227.59
2023-03-29T08:39:02.193Z,99225.41
2023-03-29T08:44:17.824Z,99223.88
2023-03-29T08:49:30.746Z,99214.81
2023-03-29T08:54:39.404Z,99228.13
2023-03-29T09:00:05.596Z,99208.16
2023-03-29T09:05:22.582Z,99207.78
2023-03-29T09:10:47.763Z,99203.81
2023-03-29T09:15:55.690Z,99197.97
2023-03-29T09:21:18.863Z,99204.03
2023-03-29T09:26:28.974Z,99199.16
2023-03-29T09:31:52.961Z,99193.84
2023-03-29T09:36:59.807Z,99191.16
2023-03-29T09:42:05.433Z,99188.78
2023-03-29T09:47:18.610Z,99184.88
2023-03-29T09:52:22.429Z,99193.22
2023-03-29T09:57:36.479Z,99183.75
2023-03-29T10:08:29.272Z,99185.47
2023-03-29T10:13:43.948Z,99173.34
2023-03-29T10:18:50.244Z,99174.75
2023-03-29T10:23:59.285Z,99171.53
2023-03-29T10:29:07.217Z,99171.66
2023-03-29T10:34:16.590Z,99153.03
2023-03-29T10:39:20.342Z,99162.59
2023-03-29T10:44:32.300Z,99148.84
2023-03-29T10:49:44.042Z,99158.00
2023-03-29T10:54:48.286Z,99146.59
2023-03-29T10:59:57.358Z,99155.53
2023-03-29T11:05:17.330Z,99148.91
2023-03-29T11:10:35.259Z,99132.41
2023-03-29T11:15:48.004Z,99124.41
2023-03-29T11:20:59.180Z,99121.09
2023-03-29T11:26:10.562Z,99116.09
2023-03-29T11:31:24.479Z,99104.66
2023-03-29T11:36:36.551Z,99101.06
2023-03-29T11:41:44.269Z,99099.88
2023-03-29T11:46:51.231Z,99101.06
2023-03-29T11:52:03.143Z,99090.59
2023-03-29T11:57:13.506Z,99084.13
2023-03-29T12:02:24.602Z,99082.53
2023-03-29T12:07:35.872Z,99066.63
2023-03-29T12:12:45.841Z,99064.25
2023-03-29T12:18:00.941Z,99060.53
2023-03-29T12:23:07.299Z,99052.75
2023-03-29T12:28:33.277Z,99050.38
2023-03-29T12:34:07.750Z,99041.31
2023-03-29T12:39:41.080Z,99040.41
2023-03-29T12:45:02.669Z,99028.38
2023-03-29T12:50:24.190Z,99025.41
2023-03-29T12:55:36.100Z,99019.47
2023-03-29T13:00:46.003Z,99019.56
2023-03-29T13:06:00.726Z,99015.97
2023-03-29T13:11:06.276Z,99010.22
2023-03-29T13:16:14.859Z,99011.78
2023-03-29T13:21:25.642Z,99004.69
2023-03-29T13:26:57.932Z,98996.03
2023-03-29T13:32:07.512Z,99003.06
2023-03-29T13:37:23.761Z,99003.56
2023-03-29T13:42:40.856Z,99018.22
2023-03-29T13:47:54.870Z,98998.91
2023-03-29T13:53:13.795Z,98996.81
2023-03-29T13:58:30.171Z,98983.31
2023-03-29T14:03:41.567Z,98983.69
2023-03-29T14:08:45.891Z,98985.19
2023-03-29T14:13:52.609Z,98981.72
2023-03-29T14:19:00.174Z,98974.69
2023-03-29T14:24:03.896Z,98969.72
2023-03-29T14:29:12.140Z,98964.59
2023-03-29T14:34:17.038Z,98965.97
2023-03-29T14:39:23.153Z,98957.34
2023-03-29T14:44:31.202Z,98953.69
2023-03-29T14:49:34.698Z,98955.66
2023-03-29T14:54:38.028Z,98949.09
2023-03-29T14:59:44.501Z,98960.94
2023-03-29T15:04:56.574Z,98960.75
2023-03-29T15:10:01.219Z,98953.59
2023-03-29T15:15:07.812Z,98944.41
2023-03-29T15:20:17.506Z,98936.81
2023-03-29T15:25:22.280Z,98934.16
2023-03-29T15:30:34.890Z,98929.38
2023-03-29T15:35:38.285Z,98922.84
2023-03-29T15:40:41.400Z,98923.84
2023-03-29T15:45:47.683Z,98914.19
2023-03-29T15:50:51.390Z,98917.13
2023-03-29T15:55:56.251Z,98905.31
2023-03-29T16:01:11.322Z,98915.28
2023-03-29T16:06:14.338Z,98910.25
2023-03-29T16:11:17.494Z,98899.94
2023-03-29T16:16:21.787Z,98892.25
2023-03-29T16:21:25.605Z,98895.13
2023-03-29T16:26:30.339Z,98888.28
2023-03-29T16:31:34.765Z,98896.50
2023-03-29T16:36:38.681Z,98893.22
2023-03-29T16:41:42.387Z,98886.69
2023-03-29T16:46:46.753Z,98878.13
2023-03-29T16:51:49.906Z,98884.88
2023-03-29T16:56:52.889Z,98882.75
2023-03-29T17:01:57.290Z,98872.78
2023-03-29T17:07:00.422Z,98871.94
2023-03-29T17:12:03.275Z,98869.34
2023-03-29T17:17:07.549Z,98873.66
2023-03-29T17:22:10.499Z,98865.75
2023-03-29T17:27:13.364Z,98863.28
2023-03-29T17:32:17.842Z,98881.78
2023-03-29T17:37:21.297Z,98863.66
2023-03-29T17:42:24.252Z,98865.28
2023-03-29T17:47:28.753Z,98865.13
2023-03-29T17:52:31.838Z,98852.38
2023-03-29T17:57:34.717Z,98865.06
2023-03-29T18:02:39.876Z,98873.41
2023-03-29T18:07:42.909Z,98876.06
2023-03-29T18:12:46.285Z,98874.56
2023-03-29T18:17:50.762Z,98882.06
2023-03-29T18:22:53.721Z,98879.81
2023-03-29T18:27:56.701Z,98889.75
2023-03-29T18:33:01.078Z,98890.41
2023-03-29T18:38:04.306Z,98898.03
2023-03-29T18:43:07.248Z,98905.94
2023-03-29T18:48:12.255Z,98906.78
2023-03-29T18:53:15.634Z,98911.19
2023-03-29T18:58:20.382Z,98908.88
2023-03-29T19:03:24.875Z,98905.25
2023-03-29T19:08:28.275Z,98908.53
2023-03-29T19:13:31.297Z,98904.63
2023-03-29T19:18:35.820Z,98908.03
2023-03-29T19:23:38.948Z,98902.72
2023-03-29T19:28:42.113Z,98900.88
2023-03-29T19:33:47.368Z,98900.06
2023-03-29T19:38:50.359Z,98898.00
2023-03-29T19:43:53.295Z,98885.66
2023-03-29T19:48:59.632Z,98878.66
2023-03-29T19:54:02.746Z,98874.38
2023-03-29T19:59:05.783Z,98871.84
2023-03-29T20:04:10.165Z,98869.78
2023-03-29T20:09:14.646Z,98859.72
2023-03-29T20:14:17.582Z,98859.97
2023-03-29T20:19:24.771Z,98854.28
2023-03-29T20:24:27.764Z,98843.34
2023-03-29T20:29:31.061Z,98839.88
2023-03-29T20:34:35.706Z,98837.41
2023-03-29T20:39:38.679Z,98829.22
2023-03-29T20:44:41.573Z,98831.78
2023-03-29T20:49:46.061Z,98810.94
2023-03-29T20:54:49.858Z,98811.97
2023-03-29T20:59:53.288Z,98800.31
2023-03-29T21:05:00.277Z,98791.97
2023-03-29T21:10:03.304Z,98786.03
2023-03-29T21:15:07.961Z,98787.75
2023-03-29T21:20:13.149Z,98776.69
2023-03-29T21:25:16.537Z,98777.81
2023-03-29T21:30:19.400Z,98770.91
2023-03-29T21:35:24.064Z,98765.34
2023-03-29T21:40:26.970Z,98762.94
2023-03-29T21:45:29.890Z,98749.63
2023-03-29T21:50:34.408Z,98760.19
2023-03-29T21:55:37.306Z,98749.44
2023-03-29T22:00:40.176Z,98746.16
2023-03-29T22:05:45.125Z,98750.94
2023-03-29T22:10:55.308Z,98735.69
2023-03-29T22:15:59.686Z,98739.28
2023-03-29T22:21:05.520Z,98719.63
2023-03-29T22:26:09.222Z,98722.50
2023-03-29T22:31:14.061Z,98730.91
2023-03-29T22:36:19.985Z,98730.19
2023-03-29T22:41:24.762Z,98719.56
2023-03-29T22:46:28.501Z,98729.03
2023-03-29T22:51:32.804Z,98726.75
2023-03-29T22:56:35.753Z,98715.94
2023-03-29T23:01:38.811Z,98720.94
2023-03-29T23:06:43.296Z,98709.31
2023-03-29T23:11:46.252Z,98699.66
2023-03-29T23:16:50.495Z,98712.50
2023-03-29T23:21:55.247Z,98700.84
2023-03-29T23:26:58.515Z,98694.78
2023-03-29T23:32:01.441Z,98692.53
2023-03-29T23:37:05.794Z,98684.59
2023-03-29T23:42:08.790Z,98678.63
2023-03-29T23:47:11.718Z,98677.78
2023-03-29T23:52:16.201Z,98685.31
2023-03-29T23:57:19.464Z,98678.16
